sensor_id;sensor_type;location;lat;lon;timestamp;P1;durP1;ratioP1;P2;durP2;ratioP2
53411;SDS011;39307;52.870;13.660;2022-10-22T00:01:27;30.38;;;21.58;;
53411;SDS011;39307;52.870;13.660;2022-10-22T00:03:53;33.20;;;22.35;;
53411;SDS011;39307;52.870;13.660;2022-10-22T00:06:19;32.55;;;22.58;;
53411;SDS011;39307;52.870;13.660;2022-10-22T00:08:46;31.92;;;21.42;;
53411;SDS011;39307;52.870;13.660;2022-10-22T00:11:13;33.00;;;21.88;;
53411;SDS011;39307;52.870;13.660;2022-10-22T00:13:41;31.83;;;21.17;;
53411;SDS011;39307;52.870;13.660;2022-10-22T00:16:08;31.85;;;21.27;;
53411;SDS011;39307;52.870;13.660;2022-10-22T00:18:34;29.52;;;20.85;;
53411;SDS011;39307;52.870;13.660;2022-10-22T00:21:01;31.05;;;22.00;;
53411;SDS011;39307;52.870;13.660;2022-10-22T00:23:27;30.42;;;21.38;;
53411;SDS011;39307;52.870;13.660;2022-10-22T00:25:54;30.23;;;20.92;;
53411;SDS011;39307;52.870;13.660;2022-10-22T00:28:20;31.65;;;20.60;;
53411;SDS011;39307;52.870;13.660;2022-10-22T00:30:46;29.90;;;21.33;;
53411;SDS011;39307;52.870;13.660;2022-10-22T00:33:12;31.10;;;20.77;;
53411;SDS011;39307;52.870;13.660;2022-10-22T00:35:38;30.48;;;20.83;;
53411;SDS011;39307;52.870;13.660;2022-10-22T00:38:05;30.38;;;21.08;;
53411;SDS011;39307;52.870;13.660;2022-10-22T00:40:33;31.08;;;20.73;;
53411;SDS011;39307;52.870;13.660;2022-10-22T00:43:00;29.52;;;20.02;;
53411;SDS011;39307;52.870;13.660;2022-10-22T00:45:26;30.23;;;20.02;;
53411;SDS011;39307;52.870;13.660;2022-10-22T00:47:56;30.70;;;20.33;;
53411;SDS011;39307;52.870;13.660;2022-10-22T00:50:31;28.42;;;19.92;;
53411;SDS011;39307;52.870;13.660;2022-10-22T00:53:14;28.05;;;19.65;;
53411;SDS011;39307;52.870;13.660;2022-10-22T00:55:45;28.98;;;19.95;;
53411;SDS011;39307;52.870;13.660;2022-10-22T00:58:16;28.00;;;19.48;;
53411;SDS011;39307;52.870;13.660;2022-10-22T01:00:44;31.35;;;20.30;;
53411;SDS011;39307;52.870;13.660;2022-10-22T01:03:11;27.40;;;18.30;;
53411;SDS011;39307;52.870;13.660;2022-10-22T01:05:42;28.08;;;19.95;;
53411;SDS011;39307;52.870;13.660;2022-10-22T01:08:45;29.02;;;19.55;;
53411;SDS011;39307;52.870;13.660;2022-10-22T01:11:26;27.60;;;18.77;;
53411;SDS011;39307;52.870;13.660;2022-10-22T01:22:30;24.90;;;18.03;;
53411;SDS011;39307;52.870;13.660;2022-10-22T01:25:24;26.92;;;18.95;;
53411;SDS011;39307;52.870;13.660;2022-10-22T01:30:43;26.23;;;18.80;;
53411;SDS011;39307;52.870;13.660;2022-10-22T01:33:11;28.17;;;18.83;;
53411;SDS011;39307;52.870;13.660;2022-10-22T01:35:41;26.75;;;18.40;;
53411;SDS011;39307;52.870;13.660;2022-10-22T01:38:14;27.48;;;19.00;;
53411;SDS011;39307;52.870;13.660;2022-10-22T01:40:45;25.90;;;17.95;;
53411;SDS011;39307;52.870;13.660;2022-10-22T01:43:12;26.03;;;18.00;;
53411;SDS011;39307;52.870;13.660;2022-10-22T01:45:41;27.42;;;18.00;;
53411;SDS011;39307;52.870;13.660;2022-10-22T01:53:52;26.13;;;17.33;;
53411;SDS011;39307;52.870;13.660;2022-10-22T01:59:34;26.02;;;18.10;;
53411;SDS011;39307;52.870;13.660;2022-10-22T02:04:47;24.00;;;17.47;;
53411;SDS011;39307;52.870;13.660;2022-10-22T02:07:23;25.70;;;16.90;;
53411;SDS011;39307;52.870;13.660;2022-10-22T02:09:55;25.48;;;17.20;;
53411;SDS011;39307;52.870;13.660;2022-10-22T02:12:24;27.42;;;17.50;;
53411;SDS011;39307;52.870;13.660;2022-10-22T02:14:52;23.52;;;16.58;;
53411;SDS011;39307;52.870;13.660;2022-10-22T02:17:20;25.38;;;17.75;;
53411;SDS011;39307;52.870;13.660;2022-10-22T02:19:49;24.25;;;16.65;;
53411;SDS011;39307;52.870;13.660;2022-10-22T02:22:23;25.70;;;16.30;;
53411;SDS011;39307;52.870;13.660;2022-10-22T02:24:51;24.63;;;17.10;;
53411;SDS011;39307;52.870;13.660;2022-10-22T02:27:23;24.05;;;17.23;;
53411;SDS011;39307;52.870;13.660;2022-10-22T02:30:00;24.95;;;16.67;;
53411;SDS011;39307;52.870;13.660;2022-10-22T02:32:40;25.50;;;17.13;;
53411;SDS011;39307;52.870;13.660;2022-10-22T02:35:12;25.00;;;16.77;;
53411;SDS011;39307;52.870;13.660;2022-10-22T02:37:43;25.70;;;17.45;;
53411;SDS011;39307;52.870;13.660;2022-10-22T02:40:10;28.88;;;17.08;;
53411;SDS011;39307;52.870;13.660;2022-10-22T02:42:37;27.10;;;17.63;;
53411;SDS011;39307;52.870;13.660;2022-10-22T02:45:05;26.90;;;17.37;;
53411;SDS011;39307;52.870;13.660;2022-10-22T02:47:31;25.65;;;17.13;;
53411;SDS011;39307;52.870;13.660;2022-10-22T02:49:57;27.02;;;17.50;;
53411;SDS011;39307;52.870;13.660;2022-10-22T02:52:24;28.63;;;18.08;;
53411;SDS011;39307;52.870;13.660;2022-10-22T02:54:50;25.60;;;16.90;;
53411;SDS011;39307;52.870;13.660;2022-10-22T02:57:16;23.27;;;16.63;;
53411;SDS011;39307;52.870;13.660;2022-10-22T02:59:42;24.13;;;16.80;;
53411;SDS011;39307;52.870;13.660;2022-10-22T03:02:08;29.50;;;17.70;;
53411;SDS011;39307;52.870;13.660;2022-10-22T03:04:35;28.63;;;17.30;;
53411;SDS011;39307;52.870;13.660;2022-10-22T03:07:01;26.13;;;17.25;;
53411;SDS011;39307;52.870;13.660;2022-10-22T03:09:27;26.55;;;17.25;;
53411;SDS011;39307;52.870;13.660;2022-10-22T03:11:53;25.05;;;16.90;;
53411;SDS011;39307;52.870;13.660;2022-10-22T03:14:20;25.85;;;16.80;;
53411;SDS011;39307;52.870;13.660;2022-10-22T03:16:46;24.50;;;16.83;;
53411;SDS011;39307;52.870;13.660;2022-10-22T03:19:12;25.33;;;16.35;;
53411;SDS011;39307;52.870;13.660;2022-10-22T03:21:45;24.63;;;16.77;;
53411;SDS011;39307;52.870;13.660;2022-10-22T03:24:18;25.20;;;16.20;;
53411;SDS011;39307;52.870;13.660;2022-10-22T03:26:49;24.98;;;16.48;;
53411;SDS011;39307;52.870;13.660;2022-10-22T03:29:16;23.90;;;16.77;;
53411;SDS011;39307;52.870;13.660;2022-10-22T03:31:42;23.90;;;15.77;;
53411;SDS011;39307;52.870;13.660;2022-10-22T03:34:09;23.20;;;16.20;;
53411;SDS011;39307;52.870;13.660;2022-10-22T03:36:35;24.42;;;16.23;;
53411;SDS011;39307;52.870;13.660;2022-10-22T03:39:01;23.52;;;16.48;;
53411;SDS011;39307;52.870;13.660;2022-10-22T03:41:29;25.60;;;16.57;;
53411;SDS011;39307;52.870;13.660;2022-10-22T03:43:55;23.42;;;15.38;;
53411;SDS011;39307;52.870;13.660;2022-10-22T03:46:22;25.00;;;16.55;;
53411;SDS011;39307;52.870;13.660;2022-10-22T03:48:48;23.67;;;16.40;;
53411;SDS011;39307;52.870;13.660;2022-10-22T03:51:14;24.42;;;16.77;;
53411;SDS011;39307;52.870;13.660;2022-10-22T03:53:41;23.45;;;15.90;;
53411;SDS011;39307;52.870;13.660;2022-10-22T03:56:07;21.08;;;14.50;;
53411;SDS011;39307;52.870;13.660;2022-10-22T03:58:35;22.42;;;15.52;;
53411;SDS011;39307;52.870;13.660;2022-10-22T04:01:09;25.10;;;16.20;;
53411;SDS011;39307;52.870;13.660;2022-10-22T04:03:37;21.52;;;14.93;;
53411;SDS011;39307;52.870;13.660;2022-10-22T04:06:04;21.08;;;14.88;;
53411;SDS011;39307;52.870;13.660;2022-10-22T04:08:35;21.47;;;14.80;;
53411;SDS011;39307;52.870;13.660;2022-10-22T04:11:04;21.40;;;14.75;;
53411;SDS011;39307;52.870;13.660;2022-10-22T04:13:30;22.80;;;14.73;;
53411;SDS011;39307;52.870;13.660;2022-10-22T04:16:18;21.50;;;15.10;;
53411;SDS011;39307;52.870;13.660;2022-10-22T04:18:47;21.30;;;15.25;;
53411;SDS011;39307;52.870;13.660;2022-10-22T04:21:16;23.02;;;15.65;;
53411;SDS011;39307;52.870;13.660;2022-10-22T04:23:44;22.50;;;14.73;;
53411;SDS011;39307;52.870;13.660;2022-10-22T04:26:11;20.85;;;14.73;;
53411;SDS011;39307;52.870;13.660;2022-10-22T04:28:38;20.43;;;14.70;;
53411;SDS011;39307;52.870;13.660;2022-10-22T04:31:12;20.23;;;14.05;;
53411;SDS011;39307;52.870;13.660;2022-10-22T04:33:44;20.92;;;14.00;;
53411;SDS011;39307;52.870;13.660;2022-10-22T04:36:14;21.08;;;14.60;;
53411;SDS011;39307;52.870;13.660;2022-10-22T04:38:42;19.95;;;14.05;;
53411;SDS011;39307;52.870;13.660;2022-10-22T04:41:13;19.23;;;13.90;;
53411;SDS011;39307;52.870;13.660;2022-10-22T04:43:41;18.73;;;13.07;;
53411;SDS011;39307;52.870;13.660;2022-10-22T04:46:09;23.17;;;13.45;;
53411;SDS011;39307;52.870;13.660;2022-10-22T04:48:37;21.27;;;13.52;;
53411;SDS011;39307;52.870;13.660;2022-10-22T04:51:04;21.15;;;13.70;;
53411;SDS011;39307;52.870;13.660;2022-10-22T04:53:32;18.90;;;13.82;;
53411;SDS011;39307;52.870;13.660;2022-10-22T04:56:08;22.45;;;15.02;;
53411;SDS011;39307;52.870;13.660;2022-10-22T04:58:37;22.20;;;14.50;;
53411;SDS011;39307;52.870;13.660;2022-10-22T05:01:17;20.23;;;14.10;;
53411;SDS011;39307;52.870;13.660;2022-10-22T05:03:45;19.42;;;13.73;;
53411;SDS011;39307;52.870;13.660;2022-10-22T05:06:12;21.05;;;13.80;;
53411;SDS011;39307;52.870;13.660;2022-10-22T05:08:38;20.60;;;14.20;;
53411;SDS011;39307;52.870;13.660;2022-10-22T05:11:15;19.75;;;13.80;;
53411;SDS011;39307;52.870;13.660;2022-10-22T05:13:44;19.35;;;13.30;;
53411;SDS011;39307;52.870;13.660;2022-10-22T05:16:10;17.60;;;12.90;;
53411;SDS011;39307;52.870;13.660;2022-10-22T05:18:38;19.92;;;13.20;;
53411;SDS011;39307;52.870;13.660;2022-10-22T05:21:15;19.80;;;13.70;;
53411;SDS011;39307;52.870;13.660;2022-10-22T05:23:43;18.80;;;13.05;;
53411;SDS011;39307;52.870;13.660;2022-10-22T05:26:10;18.75;;;13.05;;
53411;SDS011;39307;52.870;13.660;2022-10-22T05:28:38;20.92;;;13.18;;
53411;SDS011;39307;52.870;13.660;2022-10-22T05:31:05;19.40;;;12.95;;
53411;SDS011;39307;52.870;13.660;2022-10-22T05:33:32;19.63;;;13.95;;
53411;SDS011;39307;52.870;13.660;2022-10-22T05:35:59;18.67;;;12.80;;
53411;SDS011;39307;52.870;13.660;2022-10-22T05:38:26;21.13;;;13.60;;
53411;SDS011;39307;52.870;13.660;2022-10-22T05:41:03;20.88;;;13.98;;
53411;SDS011;39307;52.870;13.660;2022-10-22T05:43:31;18.15;;;13.07;;
53411;SDS011;39307;52.870;13.660;2022-10-22T05:46:04;17.33;;;12.23;;
53411;SDS011;39307;52.870;13.660;2022-10-22T05:48:32;20.58;;;14.07;;
53411;SDS011;39307;52.870;13.660;2022-10-22T05:51:06;22.92;;;14.55;;
53411;SDS011;39307;52.870;13.660;2022-10-22T05:53:35;22.63;;;14.75;;
53411;SDS011;39307;52.870;13.660;2022-10-22T05:56:04;21.15;;;13.45;;
53411;SDS011;39307;52.870;13.660;2022-10-22T05:58:31;18.23;;;12.87;;
53411;SDS011;39307;52.870;13.660;2022-10-22T06:01:03;22.02;;;14.63;;
53411;SDS011;39307;52.870;13.660;2022-10-22T06:03:30;21.02;;;14.93;;
53411;SDS011;39307;52.870;13.660;2022-10-22T06:05:59;22.13;;;17.37;;
53411;SDS011;39307;52.870;13.660;2022-10-22T06:08:28;21.50;;;16.17;;
53411;SDS011;39307;52.870;13.660;2022-10-22T06:10:54;21.50;;;16.02;;
53411;SDS011;39307;52.870;13.660;2022-10-22T06:13:21;22.10;;;15.07;;
53411;SDS011;39307;52.870;13.660;2022-10-22T06:15:48;21.52;;;13.75;;
53411;SDS011;39307;52.870;13.660;2022-10-22T06:18:14;18.98;;;13.25;;
53411;SDS011;39307;52.870;13.660;2022-10-22T06:20:41;18.90;;;13.50;;
53411;SDS011;39307;52.870;13.660;2022-10-22T06:23:07;21.23;;;14.10;;
53411;SDS011;39307;52.870;13.660;2022-10-22T06:25:33;22.52;;;14.75;;
53411;SDS011;39307;52.870;13.660;2022-10-22T06:27:59;25.40;;;15.82;;
53411;SDS011;39307;52.870;13.660;2022-10-22T06:30:26;35.73;;;22.30;;
53411;SDS011;39307;52.870;13.660;2022-10-22T06:32:52;37.77;;;25.83;;
53411;SDS011;39307;52.870;13.660;2022-10-22T06:35:18;29.37;;;19.80;;
53411;SDS011;39307;52.870;13.660;2022-10-22T06:37:44;27.90;;;18.10;;
53411;SDS011;39307;52.870;13.660;2022-10-22T06:40:11;24.65;;;16.83;;
53411;SDS011;39307;52.870;13.660;2022-10-22T06:42:37;22.80;;;15.82;;
53411;SDS011;39307;52.870;13.660;2022-10-22T06:45:03;21.52;;;14.27;;
53411;SDS011;39307;52.870;13.660;2022-10-22T06:47:30;20.23;;;13.63;;
53411;SDS011;39307;52.870;13.660;2022-10-22T06:49:56;19.48;;;13.70;;
53411;SDS011;39307;52.870;13.660;2022-10-22T06:52:22;20.00;;;13.88;;
53411;SDS011;39307;52.870;13.660;2022-10-22T06:54:49;20.55;;;14.65;;
53411;SDS011;39307;52.870;13.660;2022-10-22T06:57:15;23.92;;;14.90;;
53411;SDS011;39307;52.870;13.660;2022-10-22T06:59:41;20.23;;;14.47;;
53411;SDS011;39307;52.870;13.660;2022-10-22T07:02:08;20.90;;;15.20;;
53411;SDS011;39307;52.870;13.660;2022-10-22T07:04:35;22.92;;;17.38;;
53411;SDS011;39307;52.870;13.660;2022-10-22T07:07:01;21.63;;;16.05;;
53411;SDS011;39307;52.870;13.660;2022-10-22T07:09:27;20.52;;;14.00;;
53411;SDS011;39307;52.870;13.660;2022-10-22T07:11:53;20.63;;;14.52;;
53411;SDS011;39307;52.870;13.660;2022-10-22T07:14:19;16.83;;;12.85;;
53411;SDS011;39307;52.870;13.660;2022-10-22T07:16:45;17.92;;;12.93;;
53411;SDS011;39307;52.870;13.660;2022-10-22T07:19:12;18.63;;;12.27;;
53411;SDS011;39307;52.870;13.660;2022-10-22T07:21:38;16.10;;;11.93;;
53411;SDS011;39307;52.870;13.660;2022-10-22T07:24:04;20.42;;;12.77;;
53411;SDS011;39307;52.870;13.660;2022-10-22T07:26:31;17.35;;;12.68;;
53411;SDS011;39307;52.870;13.660;2022-10-22T07:28:58;17.13;;;12.30;;
53411;SDS011;39307;52.870;13.660;2022-10-22T07:31:25;19.45;;;12.77;;
53411;SDS011;39307;52.870;13.660;2022-10-22T07:33:52;16.77;;;11.52;;
53411;SDS011;39307;52.870;13.660;2022-10-22T07:36:18;19.43;;;12.70;;
53411;SDS011;39307;52.870;13.660;2022-10-22T07:38:45;17.63;;;11.77;;
53411;SDS011;39307;52.870;13.660;2022-10-22T07:41:12;18.33;;;12.17;;
53411;SDS011;39307;52.870;13.660;2022-10-22T07:43:40;15.75;;;11.57;;
53411;SDS011;39307;52.870;13.660;2022-10-22T07:46:06;17.52;;;12.20;;
53411;SDS011;39307;52.870;13.660;2022-10-22T07:48:33;16.38;;;12.20;;
53411;SDS011;39307;52.870;13.660;2022-10-22T07:51:02;17.17;;;11.88;;
53411;SDS011;39307;52.870;13.660;2022-10-22T07:53:29;18.27;;;12.23;;
53411;SDS011;39307;52.870;13.660;2022-10-22T07:55:56;17.10;;;11.70;;
53411;SDS011;39307;52.870;13.660;2022-10-22T07:58:22;18.00;;;11.98;;
53411;SDS011;39307;52.870;13.660;2022-10-22T08:00:49;17.25;;;11.93;;
53411;SDS011;39307;52.870;13.660;2022-10-22T08:03:16;18.58;;;11.77;;
53411;SDS011;39307;52.870;13.660;2022-10-22T08:05:43;16.83;;;12.02;;
53411;SDS011;39307;52.870;13.660;2022-10-22T08:08:10;20.15;;;12.38;;
53411;SDS011;39307;52.870;13.660;2022-10-22T08:10:37;18.02;;;12.90;;
53411;SDS011;39307;52.870;13.660;2022-10-22T08:13:04;17.15;;;11.65;;
53411;SDS011;39307;52.870;13.660;2022-10-22T08:15:31;17.48;;;12.32;;
53411;SDS011;39307;52.870;13.660;2022-10-22T08:17:57;18.83;;;12.50;;
53411;SDS011;39307;52.870;13.660;2022-10-22T08:20:23;18.58;;;12.70;;
53411;SDS011;39307;52.870;13.660;2022-10-22T08:22:49;16.73;;;11.87;;
53411;SDS011;39307;52.870;13.660;2022-10-22T08:25:16;16.63;;;12.23;;
53411;SDS011;39307;52.870;13.660;2022-10-22T08:27:42;14.90;;;11.30;;
53411;SDS011;39307;52.870;13.660;2022-10-22T08:30:09;18.33;;;11.77;;
53411;SDS011;39307;52.870;13.660;2022-10-22T08:32:36;16.15;;;11.32;;
53411;SDS011;39307;52.870;13.660;2022-10-22T08:35:02;17.45;;;12.30;;
53411;SDS011;39307;52.870;13.660;2022-10-22T08:37:29;17.73;;;12.23;;
53411;SDS011;39307;52.870;13.660;2022-10-22T08:39:55;17.42;;;11.88;;
53411;SDS011;39307;52.870;13.660;2022-10-22T08:42:28;18.67;;;12.30;;
53411;SDS011;39307;52.870;13.660;2022-10-22T08:48:02;17.90;;;12.50;;
53411;SDS011;39307;52.870;13.660;2022-10-22T08:50:45;19.27;;;12.45;;
53411;SDS011;39307;52.870;13.660;2022-10-22T08:53:15;18.95;;;13.02;;
53411;SDS011;39307;52.870;13.660;2022-10-22T08:55:46;16.08;;;12.00;;
53411;SDS011;39307;52.870;13.660;2022-10-22T09:01:37;16.95;;;12.93;;
53411;SDS011;39307;52.870;13.660;2022-10-22T09:04:24;19.73;;;13.63;;
53411;SDS011;39307;52.870;13.660;2022-10-22T09:07:07;18.48;;;13.38;;
53411;SDS011;39307;52.870;13.660;2022-10-22T09:09:35;17.65;;;13.07;;
53411;SDS011;39307;52.870;13.660;2022-10-22T09:12:09;19.13;;;13.37;;
53411;SDS011;39307;52.870;13.660;2022-10-22T09:14:41;18.55;;;13.25;;
53411;SDS011;39307;52.870;13.660;2022-10-22T09:17:33;19.15;;;13.77;;
53411;SDS011;39307;52.870;13.660;2022-10-22T09:20:23;18.17;;;13.77;;
53411;SDS011;39307;52.870;13.660;2022-10-22T09:23:46;17.95;;;13.20;;
53411;SDS011;39307;52.870;13.660;2022-10-22T09:25:57;17.80;;;13.52;;
53411;SDS011;39307;52.870;13.660;2022-10-22T09:28:24;19.50;;;13.57;;
53411;SDS011;39307;52.870;13.660;2022-10-22T09:30:50;17.85;;;13.00;;
53411;SDS011;39307;52.870;13.660;2022-10-22T09:33:24;21.90;;;13.25;;
53411;SDS011;39307;52.870;13.660;2022-10-22T09:35:54;19.37;;;13.90;;
53411;SDS011;39307;52.870;13.660;2022-10-22T09:38:25;18.55;;;13.23;;
53411;SDS011;39307;52.870;13.660;2022-10-22T09:40:54;17.48;;;13.50;;
53411;SDS011;39307;52.870;13.660;2022-10-22T09:43:21;20.17;;;14.32;;
53411;SDS011;39307;52.870;13.660;2022-10-22T09:45:55;20.98;;;13.38;;
53411;SDS011;39307;52.870;13.660;2022-10-22T09:48:29;19.23;;;13.65;;
53411;SDS011;39307;52.870;13.660;2022-10-22T09:54:01;16.90;;;13.38;;
53411;SDS011;39307;52.870;13.660;2022-10-22T09:56:38;16.85;;;12.55;;
53411;SDS011;39307;52.870;13.660;2022-10-22T09:59:05;18.63;;;12.82;;
53411;SDS011;39307;52.870;13.660;2022-10-22T10:01:39;15.90;;;11.82;;
53411;SDS011;39307;52.870;13.660;2022-10-22T10:04:06;17.30;;;12.40;;
53411;SDS011;39307;52.870;13.660;2022-10-22T10:06:35;15.80;;;12.90;;
53411;SDS011;39307;52.870;13.660;2022-10-22T10:09:04;17.90;;;13.60;;
53411;SDS011;39307;52.870;13.660;2022-10-22T10:12:07;19.65;;;13.05;;
53411;SDS011;39307;52.870;13.660;2022-10-22T10:14:47;17.60;;;13.18;;
53411;SDS011;39307;52.870;13.660;2022-10-22T10:20:02;18.52;;;13.05;;
53411;SDS011;39307;52.870;13.660;2022-10-22T10:22:54;19.20;;;12.97;;
53411;SDS011;39307;52.870;13.660;2022-10-22T10:30:58;19.02;;;13.70;;
53411;SDS011;39307;52.870;13.660;2022-10-22T10:39:39;18.98;;;13.68;;
53411;SDS011;39307;52.870;13.660;2022-10-22T10:50:29;22.13;;;15.10;;
53411;SDS011;39307;52.870;13.660;2022-10-22T10:53:09;20.35;;;14.55;;
53411;SDS011;39307;52.870;13.660;2022-10-22T10:55:56;18.00;;;13.15;;
53411;SDS011;39307;52.870;13.660;2022-10-22T10:58:44;19.25;;;14.23;;
53411;SDS011;39307;52.870;13.660;2022-10-22T11:06:32;21.95;;;14.10;;
53411;SDS011;39307;52.870;13.660;2022-10-22T11:09:07;18.63;;;14.53;;
53411;SDS011;39307;52.870;13.660;2022-10-22T11:12:05;18.90;;;14.60;;
53411;SDS011;39307;52.870;13.660;2022-10-22T11:15:02;19.67;;;14.38;;
53411;SDS011;39307;52.870;13.660;2022-10-22T11:17:39;20.60;;;14.40;;
53411;SDS011;39307;52.870;13.660;2022-10-22T11:23:00;24.07;;;14.97;;
53411;SDS011;39307;52.870;13.660;2022-10-22T11:25:37;25.45;;;16.48;;
53411;SDS011;39307;52.870;13.660;2022-10-22T11:31:03;26.95;;;17.23;;
53411;SDS011;39307;52.870;13.660;2022-10-22T11:33:56;27.73;;;17.63;;
53411;SDS011;39307;52.870;13.660;2022-10-22T11:36:38;28.03;;;17.73;;
53411;SDS011;39307;52.870;13.660;2022-10-22T11:39:05;28.23;;;17.27;;
53411;SDS011;39307;52.870;13.660;2022-10-22T11:41:32;30.02;;;18.40;;
53411;SDS011;39307;52.870;13.660;2022-10-22T11:44:07;28.02;;;17.50;;
53411;SDS011;39307;52.870;13.660;2022-10-22T11:46:46;28.60;;;18.95;;
53411;SDS011;39307;52.870;13.660;2022-10-22T11:49:44;27.55;;;17.98;;
53411;SDS011;39307;52.870;13.660;2022-10-22T11:52:25;32.50;;;20.73;;
53411;SDS011;39307;52.870;13.660;2022-10-22T11:55:10;32.85;;;20.63;;
53411;SDS011;39307;52.870;13.660;2022-10-22T11:58:25;31.88;;;20.40;;
53411;SDS011;39307;52.870;13.660;2022-10-22T12:00:53;32.22;;;19.98;;
53411;SDS011;39307;52.870;13.660;2022-10-22T12:08:33;29.92;;;19.20;;
53411;SDS011;39307;52.870;13.660;2022-10-22T12:16:21;28.02;;;18.20;;
53411;SDS011;39307;52.870;13.660;2022-10-22T12:18:56;27.60;;;18.38;;
53411;SDS011;39307;52.870;13.660;2022-10-22T12:21:32;29.60;;;18.73;;
53411;SDS011;39307;52.870;13.660;2022-10-22T12:23:59;27.95;;;17.17;;
53411;SDS011;39307;52.870;13.660;2022-10-22T12:26:28;25.63;;;17.20;;
53411;SDS011;39307;52.870;13.660;2022-10-22T12:28:56;25.90;;;17.03;;
53411;SDS011;39307;52.870;13.660;2022-10-22T12:31:23;26.10;;;16.98;;
53411;SDS011;39307;52.870;13.660;2022-10-22T12:33:56;26.90;;;18.27;;
53411;SDS011;39307;52.870;13.660;2022-10-22T12:36:27;25.05;;;16.65;;
53411;SDS011;39307;52.870;13.660;2022-10-22T12:39:02;27.83;;;17.20;;
53411;SDS011;39307;52.870;13.660;2022-10-22T12:41:36;21.67;;;16.27;;
53411;SDS011;39307;52.870;13.660;2022-10-22T12:44:03;24.55;;;16.38;;
53411;SDS011;39307;52.870;13.660;2022-10-22T12:46:31;28.15;;;16.48;;
53411;SDS011;39307;52.870;13.660;2022-10-22T12:48:59;24.48;;;16.38;;
53411;SDS011;39307;52.870;13.660;2022-10-22T12:51:27;23.30;;;15.23;;
53411;SDS011;39307;52.870;13.660;2022-10-22T12:53:55;24.67;;;15.23;;
53411;SDS011;39307;52.870;13.660;2022-10-22T12:56:26;21.20;;;15.15;;
53411;SDS011;39307;52.870;13.660;2022-10-22T13:01:23;21.80;;;15.27;;
53411;SDS011;39307;52.870;13.660;2022-10-22T13:04:03;22.38;;;15.38;;
53411;SDS011;39307;52.870;13.660;2022-10-22T13:06:50;19.30;;;13.88;;
53411;SDS011;39307;52.870;13.660;2022-10-22T13:09:36;19.48;;;12.95;;
53411;SDS011;39307;52.870;13.660;2022-10-22T13:12:04;20.23;;;13.45;;
53411;SDS011;39307;52.870;13.660;2022-10-22T13:14:35;21.02;;;13.77;;
53411;SDS011;39307;52.870;13.660;2022-10-22T13:22:36;18.00;;;12.10;;
53411;SDS011;39307;52.870;13.660;2022-10-22T13:25:17;17.80;;;11.98;;
53411;SDS011;39307;52.870;13.660;2022-10-22T13:30:54;18.08;;;12.18;;
53411;SDS011;39307;52.870;13.660;2022-10-22T13:33:32;17.20;;;11.07;;
53411;SDS011;39307;52.870;13.660;2022-10-22T13:36:02;15.18;;;9.88;;
53411;SDS011;39307;52.870;13.660;2022-10-22T13:38:29;21.08;;;10.15;;
53411;SDS011;39307;52.870;13.660;2022-10-22T13:40:56;16.23;;;9.35;;
53411;SDS011;39307;52.870;13.660;2022-10-22T13:43:22;15.95;;;9.02;;
53411;SDS011;39307;52.870;13.660;2022-10-22T13:45:51;14.98;;;8.38;;
53411;SDS011;39307;52.870;13.660;2022-10-22T13:48:25;12.75;;;8.40;;
53411;SDS011;39307;52.870;13.660;2022-10-22T13:50:53;15.07;;;9.57;;
53411;SDS011;39307;52.870;13.660;2022-10-22T13:53:21;11.57;;;7.90;;
53411;SDS011;39307;52.870;13.660;2022-10-22T13:55:50;14.27;;;8.07;;
53411;SDS011;39307;52.870;13.660;2022-10-22T13:58:18;12.32;;;7.68;;
53411;SDS011;39307;52.870;13.660;2022-10-22T14:00:46;11.88;;;6.95;;
53411;SDS011;39307;52.870;13.660;2022-10-22T14:03:15;16.27;;;8.23;;
53411;SDS011;39307;52.870;13.660;2022-10-22T14:05:45;11.00;;;7.30;;
53411;SDS011;39307;52.870;13.660;2022-10-22T14:08:12;11.50;;;7.22;;
53411;SDS011;39307;52.870;13.660;2022-10-22T14:10:42;15.25;;;9.10;;
53411;SDS011;39307;52.870;13.660;2022-10-22T14:13:09;94.45;;;53.00;;
53411;SDS011;39307;52.870;13.660;2022-10-22T14:15:36;55.17;;;30.70;;
53411;SDS011;39307;52.870;13.660;2022-10-22T14:18:03;28.50;;;16.13;;
53411;SDS011;39307;52.870;13.660;2022-10-22T14:20:32;20.30;;;11.87;;
53411;SDS011;39307;52.870;13.660;2022-10-22T14:23:14;16.95;;;9.52;;
53411;SDS011;39307;52.870;13.660;2022-10-22T14:25:46;12.98;;;8.38;;
53411;SDS011;39307;52.870;13.660;2022-10-22T14:28:12;13.87;;;7.93;;
53411;SDS011;39307;52.870;13.660;2022-10-22T14:30:39;12.53;;;7.50;;
53411;SDS011;39307;52.870;13.660;2022-10-22T14:33:12;13.77;;;7.55;;
53411;SDS011;39307;52.870;13.660;2022-10-22T14:35:46;11.85;;;7.00;;
53411;SDS011;39307;52.870;13.660;2022-10-22T14:38:12;11.98;;;7.05;;
53411;SDS011;39307;52.870;13.660;2022-10-22T14:40:39;12.38;;;7.40;;
53411;SDS011;39307;52.870;13.660;2022-10-22T14:43:06;14.02;;;7.00;;
53411;SDS011;39307;52.870;13.660;2022-10-22T14:45:40;11.00;;;6.68;;
53411;SDS011;39307;52.870;13.660;2022-10-22T14:48:06;10.57;;;6.13;;
53411;SDS011;39307;52.870;13.660;2022-10-22T14:50:33;11.15;;;6.45;;
53411;SDS011;39307;52.870;13.660;2022-10-22T14:52:59;10.80;;;6.07;;
53411;SDS011;39307;52.870;13.660;2022-10-22T14:55:25;12.37;;;6.30;;
53411;SDS011;39307;52.870;13.660;2022-10-22T14:57:52;11.68;;;6.70;;
53411;SDS011;39307;52.870;13.660;2022-10-22T15:00:18;9.60;;;5.78;;
53411;SDS011;39307;52.870;13.660;2022-10-22T15:02:46;9.70;;;5.47;;
53411;SDS011;39307;52.870;13.660;2022-10-22T15:05:13;12.57;;;5.70;;
53411;SDS011;39307;52.870;13.660;2022-10-22T15:07:39;9.77;;;5.57;;
53411;SDS011;39307;52.870;13.660;2022-10-22T15:10:06;11.10;;;5.45;;
53411;SDS011;39307;52.870;13.660;2022-10-22T15:12:33;11.32;;;5.90;;
53411;SDS011;39307;52.870;13.660;2022-10-22T15:14:59;13.00;;;6.13;;
53411;SDS011;39307;52.870;13.660;2022-10-22T15:17:26;11.18;;;6.03;;
53411;SDS011;39307;52.870;13.660;2022-10-22T15:19:52;11.05;;;5.97;;
53411;SDS011;39307;52.870;13.660;2022-10-22T15:22:18;10.35;;;5.30;;
53411;SDS011;39307;52.870;13.660;2022-10-22T15:24:44;10.25;;;5.30;;
53411;SDS011;39307;52.870;13.660;2022-10-22T15:27:11;10.18;;;5.18;;
53411;SDS011;39307;52.870;13.660;2022-10-22T15:29:37;8.63;;;5.65;;
53411;SDS011;39307;52.870;13.660;2022-10-22T15:32:03;9.85;;;5.70;;
53411;SDS011;39307;52.870;13.660;2022-10-22T15:34:31;8.57;;;5.40;;
53411;SDS011;39307;52.870;13.660;2022-10-22T15:36:59;9.25;;;5.28;;
53411;SDS011;39307;52.870;13.660;2022-10-22T15:39:26;9.50;;;5.47;;
53411;SDS011;39307;52.870;13.660;2022-10-22T15:41:53;10.20;;;5.57;;
53411;SDS011;39307;52.870;13.660;2022-10-22T15:44:28;10.10;;;6.30;;
53411;SDS011;39307;52.870;13.660;2022-10-22T15:46:55;13.13;;;8.88;;
53411;SDS011;39307;52.870;13.660;2022-10-22T15:49:23;13.40;;;7.90;;
53411;SDS011;39307;52.870;13.660;2022-10-22T15:51:50;11.00;;;7.43;;
53411;SDS011;39307;52.870;13.660;2022-10-22T15:54:17;15.20;;;10.13;;
53411;SDS011;39307;52.870;13.660;2022-10-22T15:56:45;19.77;;;12.52;;